Nearby METAR Reports

CWGD - Goderich (autob), Ontario, Canada
Distance from station: SW 47km
Updated: 04/18/2021 10:00am

 Wind from NW
Wind: NW 7 km/h
Temperature: 7°C
Wind Chill: 6°C
Dew Point: 2°C
Humidity: 71%
2021/04/18 14:00 CWGD 181400Z AUTO 32004KT 07/02 RMK AO1 SLP130 T00710017 50003
CWLS - Mount Forest(Mar, Ontario, Canada
Distance from station: ESE 53km
Updated: 04/18/2021 10:00am

 Wind from NNW
Wind: NNW 4 km/h
Temperature: 7°C
Dew Point: -1°C
Humidity: 57%
2021/04/18 14:00 CWLS 181400Z AUTO 33002KT 07/M01 RMK AO1 SLP119 T00661006 50001
 
CYVV - Wiarton Air, Ontario, Canada
Distance from station: NNE 75km
Updated: 04/18/2021 10:00am
Few Clouds
Few Clouds
 Wind from W
Wind: W 11 km/h
Temperature: 5°C
Wind Chill: 2°C
Dew Point: 1°C
Humidity: 76%
Barometer: 1010.8 hPa
Clouds: Few Clouds
Visibility: 24 km
Cloud details: Few Clouds 1219 m
Few Clouds 7620 m
2021/04/18 14:00 CYVV 181400Z 27006KT 230V300 15SM FEW040 FEW250 05/01 A2985 RMK SC1CI1 SC TR SLP118
CZEL - Elora Rcs, Ontario, Canada
Distance from station: ESE 93km
Updated: 04/18/2021 10:00am

 Wind from WSW
Wind: WSW 4 km/h
Temperature: 7°C
Dew Point: 2°C
Humidity: 71%
2021/04/18 14:00 CZEL 181400Z AUTO 25002KT 07/02 RMK AO1 SLP119 T00700021 50000
 
CWCO - Collingwood (aut, Ontario, Canada
Distance from station: ENE 104km
Updated: 04/18/2021 10:00am

 Wind from N
Wind: N 17 km/h
Temperature: 8°C
Wind Chill: 5°C
Dew Point: 2°C
Humidity: 66%
2021/04/18 14:00 CWCO 181400Z AUTO 35009KT 08/02 RMK AO1 SLP114 T00830023 50005
CYKF - Waterloo Well, Ontario, Canada
Distance from station: SE 107km
Updated: 04/18/2021 10:00am
Mostly cloudy
Mostly cloudy
 Wind from varies
Wind: varies 4 km/h
Temperature: 8°C
Dew Point: 2°C
Humidity: 66%
Barometer: 1011.2 hPa
Clouds: Mostly cloudy
Visibility: 14 km
Cloud details: Mostly cloudy 3048 m
2021/04/18 14:00 CYKF 181400Z AUTO VRB02KT 9SM BKN100 08/02 A2986 RMK SLP119
 
KP58 - Port Hope, Michigan, USA
Distance from station: W 114km
Updated: 04/18/2021 9:55am

 Wind from NW
Wind: NW 17 km/h
Temperature: 6°C
Wind Chill: 3°C
Dew Point: -1°C
Humidity: 61%
Barometer: 1011.9 hPa
2021/04/18 13:55 KP58 181355Z AUTO 31009KT 06/M01 A2988 RMK AO1 SLP123 T00561011
CYBN - Borden, Ontario, Canada
Distance from station: E 118km
Updated: 04/18/2021 10:00am
Clear
Clear
 Wind from N
Wind: N 11 km/h
Temperature: 10°C
Wind Chill: 8°C
Dew Point: 1°C
Humidity: 54%
Barometer: 1010.8 hPa
Clouds: Clear
Visibility: 14 km
2021/04/18 14:00 CYBN 181400Z AUTO 35006KT 280V050 9SM CLR 10/01 A2985 RMK SLP115
 
CYXU - London Airport, Ontario, Canada
Distance from station: S 123km
Updated: 04/18/2021 10:00am
Mostly cloudy
Mostly cloudy
 Wind from S
Wind: S 7 km/h
Temperature: 9°C
Wind Chill: 8°C
Dew Point: 4°C
Humidity: 71%
Barometer: 1011.5 hPa
Clouds: Mostly cloudy
Visibility: 24 km
Cloud details: Partly cloudy 1829 m
Partly cloudy 3048 m
Mostly cloudy 7315 m
2021/04/18 14:00 CYXU 181400Z 19004KT 130V210 15SM SCT060 SCT100 BKN240 09/04 A2987 RMK CU3AC1CI2 SLP122
CXET - Egbert Cs, Ontario, Canada
Distance from station: E 128km
Updated: 04/18/2021 10:00am

 Wind from NW
Wind: NW 7 km/h
Temperature: 8°C
Wind Chill: 7°C
Dew Point: 1°C
Humidity: 62%
2021/04/18 14:00 CXET 181400Z AUTO 32004KT 08/01 RMK AO1 SLP114 T00750013 50004
 
CWMZ - Western Isl (map, Ontario, Canada
Distance from station: NE 129km
Updated: 04/18/2021 9:00am
NOT Current

 
2021/04/18 13:00 CWMZ 181300Z AUTO RMK AO1
KBAX - Bad Axe, Michigan, USA
Distance from station: WSW 133km
Updated: 04/18/2021 10:15am
Clear
Clear
 Wind from NW
Wind: NW 7 km/h
Temperature: 6°C
Wind Chill: 4°C
Dew Point: -2°C
Humidity: 57%
Barometer: 1012.2 hPa
Clouds: Clear
Visibility: 16 km
2021/04/18 14:15 KBAX 181415Z AUTO 32004KT 10SM CLR 06/M02 A2989 RMK AO2 T00641016
 
CWWX - Cove Island (map, Ontario, Canada
Distance from station: NNW 137km
Updated: 04/18/2021 10:00am

 Wind from WNW
Wind: WNW 15 km/h
Temperature: 2°C
Wind Chill: -2°C
Dew Point: 0°C
Humidity: 87%
2021/04/18 14:00 CWWX 181400Z AUTO 29008KT 02/M00 RMK AO1 SLP107 T00201004 50003
CYZR - Sarnia Airport, Ontario, Canada
Distance from station: SSW 144km
Updated: 04/18/2021 10:00am
Clear
Clear
 Wind from NW
Wind: NW 13 km/h
Temperature: 9°C
Wind Chill: 7°C
Dew Point: 5°C
Humidity: 76%
Barometer: 1011.9 hPa
Clouds: Clear
Visibility: 14 km
2021/04/18 14:00 CYZR 181400Z AUTO 31007KT 9SM CLR 09/05 A2988 RMK SLP123
 
CXHM - Hamilton Rbg Cs, Ontario, Canada
Distance from station: SE 150km
Updated: 04/18/2021 10:00am

 Wind from W
Wind: W 7 km/h
Temperature: 10°C
Wind Chill: 9°C
Dew Point: 3°C
Humidity: 62%
2021/04/18 14:00 CXHM 181400Z AUTO 28004KT 10/03 RMK AO1 SLP119 T00980026 51005
CYYZ - Toronto/Pearson, Ontario, Canada
Distance from station: ESE 150km
Updated: 04/18/2021 10:00am
Partly cloudy
Partly cloudy
 Wind from NW
Wind: NW 11 km/h
Temperature: 12°C
Dew Point: 2°C
Humidity: 51%
Barometer: 1010.8 hPa
Clouds: Partly cloudy
Visibility: 24 km
Cloud details: Few Clouds 1829 m
Partly cloudy 3048 m
2021/04/18 14:00 CYYZ 181400Z 32006KT 15SM FEW060 SCT100 12/02 A2985 RMK CF1AC3 CF TR SLP113
 
CXBI - Barrie-Oro, Ontario, Canada
Distance from station: ENE 151km
Updated: 04/18/2021 10:00am

 Wind from WNW
Wind: WNW 17 km/h
Temperature: 9°C
Wind Chill: 7°C
Dew Point: 1°C
Humidity: 58%
2021/04/18 14:00 CXBI 181400Z AUTO 30009KT 09/01 RMK AO1 SLP120 T00910012 51008
CXDI - Delhi Cs (aut), Ontario, Canada
Distance from station: SSE 154km
Updated: 04/18/2021 10:00am

 Wind from SSW
Wind: SSW 4 km/h
Temperature: 9°C
Dew Point: 2°C
Humidity: 62%
2021/04/18 14:00 CXDI 181400Z AUTO 21002KT 09/02 RMK AO1 SLP124 T00860021 50002
 
CWWB - Burlington Piers, Ontario, Canada
Distance from station: SE 157km
Updated: 04/18/2021 10:00am

 Wind from SSW
Wind: SSW 7 km/h
Temperature: 9°C
Wind Chill: 8°C
Dew Point: 3°C
Humidity: 66%
2021/04/18 14:00 CWWB 181400Z AUTO 21004KT 09/03 RMK AO1 SLP118 T00940031 50004
CYHM - Hamilton Airport, Ontario, Canada
Distance from station: SE 157km
Updated: 04/18/2021 10:00am

 
2021/04/18 14:00 CYHM 181400Z CCA 24005KT 15SM SCT070 BKN100 09/04 A2987 RMK AC3AC4 SLP123